Terminal Aerodrome Forecast
Issued by NWS Caribou, ME

Home | Current Version | Previous Version | Text Only | Print | Product List | Glossary On
Versions: 1 2 3 4 5 6 7 8 9 10 11 12 13 14 15 16 17 18 19
694
FTUS41 KCAR 191938 AAB
TAFBGR
TAF AMD
KBGR 191938Z 1920/2018 26004KT P6SM BKN035
     FM192300 28004KT P6SM BKN030
     FM200000 29005KT P6SM SCT025
     FM200800 34004KT P6SM SCT250=

USA.gov is the U.S. government's official web portal to all federal, state and local government web resources and services.